sensor_id;sensor_type;location;lat;lon;timestamp;P1;durP1;ratioP1;P2;durP2;ratioP2
41693;SDS011;27377;50.666;9.150;2023-12-28T00:00:46;5.73;;;2.90;;
41693;SDS011;27377;50.666;9.150;2023-12-28T00:03:12;5.97;;;2.80;;
41693;SDS011;27377;50.666;9.150;2023-12-28T00:05:38;6.35;;;2.95;;
41693;SDS011;27377;50.666;9.150;2023-12-28T00:08:07;5.80;;;2.95;;
41693;SDS011;27377;50.666;9.150;2023-12-28T00:10:41;5.13;;;3.17;;
41693;SDS011;27377;50.666;9.150;2023-12-28T00:13:15;5.53;;;3.00;;
41693;SDS011;27377;50.666;9.150;2023-12-28T00:15:41;5.87;;;3.00;;
41693;SDS011;27377;50.666;9.150;2023-12-28T00:18:09;5.70;;;3.00;;
41693;SDS011;27377;50.666;9.150;2023-12-28T00:20:35;6.70;;;3.00;;
41693;SDS011;27377;50.666;9.150;2023-12-28T00:23:09;5.82;;;3.15;;
41693;SDS011;27377;50.666;9.150;2023-12-28T00:25:35;6.27;;;2.77;;
41693;SDS011;27377;50.666;9.150;2023-12-28T00:28:01;6.55;;;3.22;;
41693;SDS011;27377;50.666;9.150;2023-12-28T00:30:27;4.88;;;2.95;;
41693;SDS011;27377;50.666;9.150;2023-12-28T00:32:52;8.15;;;3.00;;
41693;SDS011;27377;50.666;9.150;2023-12-28T00:35:18;5.30;;;3.00;;
41693;SDS011;27377;50.666;9.150;2023-12-28T00:37:44;7.45;;;3.40;;
41693;SDS011;27377;50.666;9.150;2023-12-28T00:40:13;6.93;;;3.17;;
41693;SDS011;27377;50.666;9.150;2023-12-28T00:42:41;6.57;;;3.15;;
41693;SDS011;27377;50.666;9.150;2023-12-28T00:45:08;6.70;;;3.07;;
41693;SDS011;27377;50.666;9.150;2023-12-28T00:47:34;6.55;;;3.10;;
41693;SDS011;27377;50.666;9.150;2023-12-28T00:50:02;9.43;;;3.28;;
41693;SDS011;27377;50.666;9.150;2023-12-28T00:52:28;6.03;;;3.20;;
41693;SDS011;27377;50.666;9.150;2023-12-28T00:58:06;5.55;;;3.00;;
41693;SDS011;27377;50.666;9.150;2023-12-28T01:00:31;6.63;;;3.10;;
41693;SDS011;27377;50.666;9.150;2023-12-28T01:02:57;7.60;;;3.07;;
41693;SDS011;27377;50.666;9.150;2023-12-28T01:05:25;8.00;;;3.20;;
41693;SDS011;27377;50.666;9.150;2023-12-28T01:07:53;5.38;;;3.15;;
41693;SDS011;27377;50.666;9.150;2023-12-28T01:10:22;6.90;;;3.10;;
41693;SDS011;27377;50.666;9.150;2023-12-28T01:12:51;7.13;;;3.10;;
41693;SDS011;27377;50.666;9.150;2023-12-28T01:15:16;7.13;;;3.23;;
41693;SDS011;27377;50.666;9.150;2023-12-28T01:17:45;6.40;;;3.13;;
41693;SDS011;27377;50.666;9.150;2023-12-28T01:20:30;6.23;;;3.50;;
41693;SDS011;27377;50.666;9.150;2023-12-28T01:23:01;5.68;;;3.10;;
41693;SDS011;27377;50.666;9.150;2023-12-28T01:25:27;7.30;;;3.50;;
41693;SDS011;27377;50.666;9.150;2023-12-28T01:27:52;6.68;;;3.42;;
41693;SDS011;27377;50.666;9.150;2023-12-28T01:30:52;8.25;;;3.35;;
41693;SDS011;27377;50.666;9.150;2023-12-28T01:33:17;5.78;;;3.58;;
41693;SDS011;27377;50.666;9.150;2023-12-28T01:35:48;5.70;;;3.20;;
41693;SDS011;27377;50.666;9.150;2023-12-28T01:41:03;6.72;;;3.10;;
41693;SDS011;27377;50.666;9.150;2023-12-28T01:43:29;6.18;;;3.20;;
41693;SDS011;27377;50.666;9.150;2023-12-28T01:45:56;5.93;;;3.10;;
41693;SDS011;27377;50.666;9.150;2023-12-28T01:48:22;7.27;;;3.73;;
41693;SDS011;27377;50.666;9.150;2023-12-28T01:50:53;6.72;;;3.80;;
41693;SDS011;27377;50.666;9.150;2023-12-28T01:53:22;6.10;;;3.33;;
41693;SDS011;27377;50.666;9.150;2023-12-28T01:55:59;7.05;;;3.58;;
41693;SDS011;27377;50.666;9.150;2023-12-28T01:58:26;7.60;;;3.20;;
41693;SDS011;27377;50.666;9.150;2023-12-28T02:00:56;7.65;;;3.40;;
41693;SDS011;27377;50.666;9.150;2023-12-28T02:03:22;7.95;;;3.38;;
41693;SDS011;27377;50.666;9.150;2023-12-28T02:05:57;6.32;;;3.63;;
41693;SDS011;27377;50.666;9.150;2023-12-28T02:08:26;6.57;;;3.30;;
41693;SDS011;27377;50.666;9.150;2023-12-28T02:14:17;6.32;;;3.20;;
41693;SDS011;27377;50.666;9.150;2023-12-28T02:17:25;7.18;;;3.28;;
41693;SDS011;27377;50.666;9.150;2023-12-28T02:20:23;7.55;;;3.92;;
41693;SDS011;27377;50.666;9.150;2023-12-28T02:22:50;7.03;;;3.65;;
41693;SDS011;27377;50.666;9.150;2023-12-28T02:25:34;8.10;;;3.92;;
41693;SDS011;27377;50.666;9.150;2023-12-28T02:28:04;6.40;;;3.70;;
41693;SDS011;27377;50.666;9.150;2023-12-28T02:30:53;6.75;;;3.30;;
41693;SDS011;27377;50.666;9.150;2023-12-28T02:33:34;6.20;;;3.53;;
41693;SDS011;27377;50.666;9.150;2023-12-28T02:36:09;6.93;;;3.70;;
41693;SDS011;27377;50.666;9.150;2023-12-28T02:38:44;6.88;;;3.60;;
41693;SDS011;27377;50.666;9.150;2023-12-28T02:41:17;7.50;;;3.60;;
41693;SDS011;27377;50.666;9.150;2023-12-28T02:43:43;6.63;;;3.45;;
41693;SDS011;27377;50.666;9.150;2023-12-28T02:49:01;7.40;;;3.78;;
41693;SDS011;27377;50.666;9.150;2023-12-28T02:51:29;6.05;;;3.47;;
41693;SDS011;27377;50.666;9.150;2023-12-28T02:53:58;6.18;;;3.42;;
41693;SDS011;27377;50.666;9.150;2023-12-28T02:56:26;6.75;;;3.53;;
41693;SDS011;27377;50.666;9.150;2023-12-28T02:58:54;6.65;;;3.50;;
41693;SDS011;27377;50.666;9.150;2023-12-28T03:01:20;9.85;;;3.95;;
41693;SDS011;27377;50.666;9.150;2023-12-28T03:03:53;6.28;;;3.40;;
41693;SDS011;27377;50.666;9.150;2023-12-28T03:06:24;8.02;;;3.88;;
41693;SDS011;27377;50.666;9.150;2023-12-28T03:08:53;7.63;;;3.63;;
41693;SDS011;27377;50.666;9.150;2023-12-28T03:11:22;9.37;;;3.70;;
41693;SDS011;27377;50.666;9.150;2023-12-28T03:14:31;7.38;;;3.72;;
41693;SDS011;27377;50.666;9.150;2023-12-28T03:19:42;7.97;;;3.80;;
41693;SDS011;27377;50.666;9.150;2023-12-28T03:22:11;7.65;;;3.70;;
41693;SDS011;27377;50.666;9.150;2023-12-28T03:24:42;6.57;;;3.50;;
41693;SDS011;27377;50.666;9.150;2023-12-28T03:27:17;6.25;;;3.60;;
41693;SDS011;27377;50.666;9.150;2023-12-28T03:29:47;7.60;;;3.87;;
41693;SDS011;27377;50.666;9.150;2023-12-28T03:32:13;6.05;;;3.58;;
41693;SDS011;27377;50.666;9.150;2023-12-28T03:34:39;7.13;;;3.78;;
41693;SDS011;27377;50.666;9.150;2023-12-28T03:37:07;7.70;;;3.80;;
41693;SDS011;27377;50.666;9.150;2023-12-28T03:39:38;7.38;;;3.55;;
41693;SDS011;27377;50.666;9.150;2023-12-28T03:42:06;6.72;;;4.03;;
41693;SDS011;27377;50.666;9.150;2023-12-28T03:44:32;6.28;;;3.90;;
41693;SDS011;27377;50.666;9.150;2023-12-28T03:47:01;7.38;;;3.60;;
41693;SDS011;27377;50.666;9.150;2023-12-28T03:49:42;6.63;;;3.70;;
41693;SDS011;27377;50.666;9.150;2023-12-28T03:52:08;6.80;;;3.63;;
41693;SDS011;27377;50.666;9.150;2023-12-28T03:54:36;7.80;;;3.60;;
41693;SDS011;27377;50.666;9.150;2023-12-28T03:57:01;7.03;;;3.60;;
41693;SDS011;27377;50.666;9.150;2023-12-28T03:59:27;9.32;;;3.95;;
41693;SDS011;27377;50.666;9.150;2023-12-28T04:02:02;6.20;;;3.80;;
41693;SDS011;27377;50.666;9.150;2023-12-28T04:04:39;7.85;;;3.78;;
41693;SDS011;27377;50.666;9.150;2023-12-28T04:07:16;5.90;;;3.57;;
41693;SDS011;27377;50.666;9.150;2023-12-28T04:09:42;7.15;;;3.80;;
41693;SDS011;27377;50.666;9.150;2023-12-28T04:12:14;7.47;;;3.80;;
41693;SDS011;27377;50.666;9.150;2023-12-28T04:14:42;6.38;;;3.83;;
41693;SDS011;27377;50.666;9.150;2023-12-28T04:17:11;7.68;;;3.80;;
41693;SDS011;27377;50.666;9.150;2023-12-28T04:20:10;6.15;;;3.63;;
41693;SDS011;27377;50.666;9.150;2023-12-28T04:22:52;6.80;;;3.80;;
41693;SDS011;27377;50.666;9.150;2023-12-28T04:25:18;6.70;;;3.50;;
41693;SDS011;27377;50.666;9.150;2023-12-28T04:27:49;6.60;;;3.83;;
41693;SDS011;27377;50.666;9.150;2023-12-28T04:30:19;7.47;;;3.88;;
41693;SDS011;27377;50.666;9.150;2023-12-28T04:32:47;5.72;;;3.90;;
41693;SDS011;27377;50.666;9.150;2023-12-28T04:35:16;7.82;;;3.72;;
41693;SDS011;27377;50.666;9.150;2023-12-28T04:37:50;6.67;;;3.40;;
41693;SDS011;27377;50.666;9.150;2023-12-28T04:40:19;6.80;;;3.65;;
41693;SDS011;27377;50.666;9.150;2023-12-28T04:42:53;8.63;;;3.53;;
41693;SDS011;27377;50.666;9.150;2023-12-28T04:45:19;7.13;;;3.50;;
41693;SDS011;27377;50.666;9.150;2023-12-28T04:47:56;6.53;;;3.67;;
41693;SDS011;27377;50.666;9.150;2023-12-28T04:50:29;7.43;;;3.65;;
41693;SDS011;27377;50.666;9.150;2023-12-28T04:53:02;10.30;;;3.80;;
41693;SDS011;27377;50.666;9.150;2023-12-28T04:55:31;6.78;;;3.75;;
41693;SDS011;27377;50.666;9.150;2023-12-28T04:58:03;5.85;;;3.40;;
41693;SDS011;27377;50.666;9.150;2023-12-28T05:00:33;6.97;;;3.80;;
41693;SDS011;27377;50.666;9.150;2023-12-28T05:03:30;6.57;;;3.60;;
41693;SDS011;27377;50.666;9.150;2023-12-28T05:06:01;6.03;;;3.67;;
41693;SDS011;27377;50.666;9.150;2023-12-28T05:08:33;6.77;;;3.40;;
41693;SDS011;27377;50.666;9.150;2023-12-28T05:11:07;7.75;;;3.60;;
41693;SDS011;27377;50.666;9.150;2023-12-28T05:13:39;6.50;;;3.35;;
41693;SDS011;27377;50.666;9.150;2023-12-28T05:16:10;8.40;;;3.50;;
41693;SDS011;27377;50.666;9.150;2023-12-28T05:18:41;6.67;;;3.57;;
41693;SDS011;27377;50.666;9.150;2023-12-28T05:21:12;6.65;;;3.30;;
41693;SDS011;27377;50.666;9.150;2023-12-28T05:23:50;6.03;;;3.45;;
41693;SDS011;27377;50.666;9.150;2023-12-28T05:26:21;6.90;;;3.50;;
41693;SDS011;27377;50.666;9.150;2023-12-28T05:28:54;6.05;;;3.20;;
41693;SDS011;27377;50.666;9.150;2023-12-28T05:31:28;6.90;;;3.42;;
41693;SDS011;27377;50.666;9.150;2023-12-28T05:33:54;6.40;;;3.20;;
41693;SDS011;27377;50.666;9.150;2023-12-28T05:36:20;6.30;;;3.40;;
41693;SDS011;27377;50.666;9.150;2023-12-28T05:38:48;6.32;;;3.40;;
41693;SDS011;27377;50.666;9.150;2023-12-28T05:41:19;7.47;;;3.30;;
41693;SDS011;27377;50.666;9.150;2023-12-28T05:43:57;6.18;;;3.40;;
41693;SDS011;27377;50.666;9.150;2023-12-28T05:46:30;7.57;;;3.40;;
41693;SDS011;27377;50.666;9.150;2023-12-28T05:49:04;6.65;;;3.60;;
41693;SDS011;27377;50.666;9.150;2023-12-28T05:51:41;5.93;;;3.10;;
41693;SDS011;27377;50.666;9.150;2023-12-28T05:54:15;6.23;;;3.60;;
41693;SDS011;27377;50.666;9.150;2023-12-28T05:56:43;5.22;;;3.30;;
41693;SDS011;27377;50.666;9.150;2023-12-28T06:02:07;5.88;;;3.38;;
41693;SDS011;27377;50.666;9.150;2023-12-28T06:04:48;6.25;;;3.33;;
41693;SDS011;27377;50.666;9.150;2023-12-28T06:07:16;6.57;;;3.55;;
41693;SDS011;27377;50.666;9.150;2023-12-28T06:09:48;6.07;;;3.20;;
41693;SDS011;27377;50.666;9.150;2023-12-28T06:12:14;5.35;;;3.55;;
41693;SDS011;27377;50.666;9.150;2023-12-28T06:17:41;5.65;;;3.50;;
41693;SDS011;27377;50.666;9.150;2023-12-28T06:20:08;6.27;;;3.67;;
41693;SDS011;27377;50.666;9.150;2023-12-28T06:25:43;6.43;;;3.80;;
41693;SDS011;27377;50.666;9.150;2023-12-28T06:28:12;7.70;;;4.07;;
41693;SDS011;27377;50.666;9.150;2023-12-28T06:30:43;8.38;;;4.15;;
41693;SDS011;27377;50.666;9.150;2023-12-28T06:33:20;7.10;;;4.03;;
41693;SDS011;27377;50.666;9.150;2023-12-28T06:35:46;7.18;;;3.92;;
41693;SDS011;27377;50.666;9.150;2023-12-28T06:38:11;7.47;;;4.50;;
41693;SDS011;27377;50.666;9.150;2023-12-28T06:40:39;8.38;;;4.40;;
41693;SDS011;27377;50.666;9.150;2023-12-28T06:43:05;7.78;;;4.45;;
41693;SDS011;27377;50.666;9.150;2023-12-28T06:45:31;6.60;;;4.20;;
41693;SDS011;27377;50.666;9.150;2023-12-28T06:47:57;7.72;;;4.45;;
41693;SDS011;27377;50.666;9.150;2023-12-28T06:50:23;6.93;;;4.30;;
41693;SDS011;27377;50.666;9.150;2023-12-28T06:52:49;6.53;;;4.10;;
41693;SDS011;27377;50.666;9.150;2023-12-28T06:55:15;8.05;;;4.80;;
41693;SDS011;27377;50.666;9.150;2023-12-28T06:57:40;6.80;;;4.57;;
41693;SDS011;27377;50.666;9.150;2023-12-28T07:00:06;7.68;;;4.60;;
41693;SDS011;27377;50.666;9.150;2023-12-28T07:02:33;8.60;;;4.43;;
41693;SDS011;27377;50.666;9.150;2023-12-28T07:04:59;9.15;;;4.70;;
41693;SDS011;27377;50.666;9.150;2023-12-28T07:07:25;8.07;;;4.40;;
41693;SDS011;27377;50.666;9.150;2023-12-28T07:09:50;8.23;;;4.53;;
41693;SDS011;27377;50.666;9.150;2023-12-28T07:12:16;6.70;;;4.35;;
41693;SDS011;27377;50.666;9.150;2023-12-28T07:14:45;8.10;;;4.72;;
41693;SDS011;27377;50.666;9.150;2023-12-28T07:17:11;7.28;;;4.30;;
41693;SDS011;27377;50.666;9.150;2023-12-28T07:19:42;8.03;;;4.67;;
41693;SDS011;27377;50.666;9.150;2023-12-28T07:22:08;7.07;;;4.60;;
41693;SDS011;27377;50.666;9.150;2023-12-28T07:24:34;6.57;;;4.50;;
41693;SDS011;27377;50.666;9.150;2023-12-28T07:27:01;6.90;;;4.38;;
41693;SDS011;27377;50.666;9.150;2023-12-28T07:29:26;7.95;;;4.47;;
41693;SDS011;27377;50.666;9.150;2023-12-28T07:31:53;8.30;;;4.70;;
41693;SDS011;27377;50.666;9.150;2023-12-28T07:34:19;7.30;;;4.60;;
41693;SDS011;27377;50.666;9.150;2023-12-28T07:36:45;7.37;;;4.57;;
41693;SDS011;27377;50.666;9.150;2023-12-28T07:39:10;6.75;;;4.57;;
41693;SDS011;27377;50.666;9.150;2023-12-28T07:41:36;6.03;;;4.20;;
41693;SDS011;27377;50.666;9.150;2023-12-28T07:44:02;6.38;;;4.07;;
41693;SDS011;27377;50.666;9.150;2023-12-28T07:46:28;6.18;;;4.10;;
41693;SDS011;27377;50.666;9.150;2023-12-28T07:48:54;9.47;;;4.47;;
41693;SDS011;27377;50.666;9.150;2023-12-28T07:51:20;7.23;;;4.27;;
41693;SDS011;27377;50.666;9.150;2023-12-28T07:53:45;6.97;;;4.23;;
41693;SDS011;27377;50.666;9.150;2023-12-28T07:56:11;7.68;;;4.32;;
41693;SDS011;27377;50.666;9.150;2023-12-28T07:58:37;6.22;;;3.83;;
41693;SDS011;27377;50.666;9.150;2023-12-28T08:01:08;7.35;;;4.20;;
41693;SDS011;27377;50.666;9.150;2023-12-28T08:03:36;6.82;;;4.00;;
41693;SDS011;27377;50.666;9.150;2023-12-28T08:06:01;8.05;;;4.30;;
41693;SDS011;27377;50.666;9.150;2023-12-28T08:08:27;6.57;;;3.90;;
41693;SDS011;27377;50.666;9.150;2023-12-28T08:10:53;8.20;;;3.85;;
41693;SDS011;27377;50.666;9.150;2023-12-28T08:13:19;5.90;;;3.60;;
41693;SDS011;27377;50.666;9.150;2023-12-28T08:15:44;7.35;;;3.75;;
41693;SDS011;27377;50.666;9.150;2023-12-28T08:18:11;5.43;;;3.60;;
41693;SDS011;27377;50.666;9.150;2023-12-28T08:20:38;5.28;;;3.60;;
41693;SDS011;27377;50.666;9.150;2023-12-28T08:23:04;5.97;;;3.60;;
41693;SDS011;27377;50.666;9.150;2023-12-28T08:25:30;5.97;;;3.45;;
41693;SDS011;27377;50.666;9.150;2023-12-28T08:27:55;6.83;;;3.53;;
41693;SDS011;27377;50.666;9.150;2023-12-28T08:30:21;7.50;;;3.50;;
41693;SDS011;27377;50.666;9.150;2023-12-28T08:32:46;5.63;;;3.20;;
41693;SDS011;27377;50.666;9.150;2023-12-28T08:35:12;5.37;;;3.30;;
41693;SDS011;27377;50.666;9.150;2023-12-28T08:37:38;7.38;;;3.50;;
41693;SDS011;27377;50.666;9.150;2023-12-28T08:40:04;5.53;;;3.00;;
41693;SDS011;27377;50.666;9.150;2023-12-28T08:42:30;6.68;;;3.20;;
41693;SDS011;27377;50.666;9.150;2023-12-28T08:44:56;5.78;;;3.05;;
41693;SDS011;27377;50.666;9.150;2023-12-28T08:47:22;6.03;;;3.10;;
41693;SDS011;27377;50.666;9.150;2023-12-28T08:49:48;6.57;;;3.15;;
41693;SDS011;27377;50.666;9.150;2023-12-28T08:52:14;5.80;;;2.92;;
41693;SDS011;27377;50.666;9.150;2023-12-28T08:54:40;6.57;;;3.08;;
41693;SDS011;27377;50.666;9.150;2023-12-28T08:57:06;6.05;;;3.20;;
41693;SDS011;27377;50.666;9.150;2023-12-28T08:59:35;5.75;;;2.90;;
41693;SDS011;27377;50.666;9.150;2023-12-28T09:02:02;5.95;;;2.80;;
41693;SDS011;27377;50.666;9.150;2023-12-28T09:04:28;5.65;;;3.00;;
41693;SDS011;27377;50.666;9.150;2023-12-28T09:06:55;4.78;;;2.50;;
41693;SDS011;27377;50.666;9.150;2023-12-28T09:09:21;4.40;;;2.70;;
41693;SDS011;27377;50.666;9.150;2023-12-28T09:11:47;5.43;;;3.15;;
41693;SDS011;27377;50.666;9.150;2023-12-28T09:14:12;5.13;;;2.80;;
41693;SDS011;27377;50.666;9.150;2023-12-28T09:16:38;5.38;;;3.05;;
41693;SDS011;27377;50.666;9.150;2023-12-28T09:19:05;5.90;;;2.90;;
41693;SDS011;27377;50.666;9.150;2023-12-28T09:21:31;4.65;;;2.80;;
41693;SDS011;27377;50.666;9.150;2023-12-28T09:23:57;5.18;;;2.70;;
41693;SDS011;27377;50.666;9.150;2023-12-28T09:26:23;4.82;;;3.08;;
41693;SDS011;27377;50.666;9.150;2023-12-28T09:28:49;4.47;;;2.73;;
41693;SDS011;27377;50.666;9.150;2023-12-28T09:31:14;5.13;;;2.97;;
41693;SDS011;27377;50.666;9.150;2023-12-28T09:33:40;5.82;;;3.15;;
41693;SDS011;27377;50.666;9.150;2023-12-28T09:36:05;4.88;;;2.83;;
41693;SDS011;27377;50.666;9.150;2023-12-28T09:38:32;5.03;;;3.10;;
41693;SDS011;27377;50.666;9.150;2023-12-28T09:40:58;6.37;;;3.00;;
41693;SDS011;27377;50.666;9.150;2023-12-28T09:43:37;5.10;;;2.75;;
41693;SDS011;27377;50.666;9.150;2023-12-28T09:46:10;4.97;;;2.63;;
41693;SDS011;27377;50.666;9.150;2023-12-28T09:48:37;5.07;;;2.90;;
41693;SDS011;27377;50.666;9.150;2023-12-28T09:51:04;5.88;;;2.83;;
41693;SDS011;27377;50.666;9.150;2023-12-28T09:53:30;5.13;;;2.75;;
41693;SDS011;27377;50.666;9.150;2023-12-28T09:55:56;5.45;;;2.80;;
41693;SDS011;27377;50.666;9.150;2023-12-28T09:58:23;5.75;;;2.72;;
41693;SDS011;27377;50.666;9.150;2023-12-28T10:00:50;6.32;;;2.88;;
41693;SDS011;27377;50.666;9.150;2023-12-28T10:03:18;4.85;;;2.67;;
41693;SDS011;27377;50.666;9.150;2023-12-28T10:05:44;5.15;;;2.70;;
41693;SDS011;27377;50.666;9.150;2023-12-28T10:08:11;4.88;;;2.72;;
41693;SDS011;27377;50.666;9.150;2023-12-28T10:10:38;5.70;;;3.10;;
41693;SDS011;27377;50.666;9.150;2023-12-28T10:13:06;6.57;;;2.72;;
41693;SDS011;27377;50.666;9.150;2023-12-28T10:15:36;4.50;;;2.50;;
41693;SDS011;27377;50.666;9.150;2023-12-28T10:18:03;5.00;;;2.40;;
41693;SDS011;27377;50.666;9.150;2023-12-28T10:20:30;6.40;;;2.80;;
41693;SDS011;27377;50.666;9.150;2023-12-28T10:22:56;6.88;;;2.50;;
41693;SDS011;27377;50.666;9.150;2023-12-28T10:25:23;5.60;;;2.60;;
41693;SDS011;27377;50.666;9.150;2023-12-28T10:27:52;4.90;;;2.63;;
41693;SDS011;27377;50.666;9.150;2023-12-28T10:30:19;6.03;;;2.60;;
41693;SDS011;27377;50.666;9.150;2023-12-28T10:32:46;5.77;;;2.80;;
41693;SDS011;27377;50.666;9.150;2023-12-28T10:35:12;5.55;;;2.50;;
41693;SDS011;27377;50.666;9.150;2023-12-28T10:37:43;4.72;;;2.38;;
41693;SDS011;27377;50.666;9.150;2023-12-28T10:40:14;5.50;;;2.72;;
41693;SDS011;27377;50.666;9.150;2023-12-28T10:45:39;6.07;;;2.50;;
41693;SDS011;27377;50.666;9.150;2023-12-28T10:48:06;4.90;;;2.33;;
41693;SDS011;27377;50.666;9.150;2023-12-28T10:50:37;5.60;;;2.60;;
41693;SDS011;27377;50.666;9.150;2023-12-28T10:53:06;6.18;;;2.80;;
41693;SDS011;27377;50.666;9.150;2023-12-28T10:58:24;5.68;;;2.50;;
41693;SDS011;27377;50.666;9.150;2023-12-28T11:01:22;6.43;;;2.50;;
41693;SDS011;27377;50.666;9.150;2023-12-28T11:03:57;4.93;;;2.35;;
41693;SDS011;27377;50.666;9.150;2023-12-28T11:06:29;6.90;;;2.70;;
41693;SDS011;27377;50.666;9.150;2023-12-28T11:08:56;6.27;;;2.47;;
41693;SDS011;27377;50.666;9.150;2023-12-28T11:11:23;9.30;;;3.00;;
41693;SDS011;27377;50.666;9.150;2023-12-28T11:13:50;5.70;;;2.70;;
41693;SDS011;27377;50.666;9.150;2023-12-28T11:16:17;5.40;;;2.57;;
41693;SDS011;27377;50.666;9.150;2023-12-28T11:18:44;6.00;;;2.55;;
41693;SDS011;27377;50.666;9.150;2023-12-28T11:21:10;7.38;;;2.88;;
41693;SDS011;27377;50.666;9.150;2023-12-28T11:23:36;6.07;;;2.47;;
41693;SDS011;27377;50.666;9.150;2023-12-28T11:26:03;6.32;;;2.80;;
41693;SDS011;27377;50.666;9.150;2023-12-28T11:28:29;5.63;;;2.23;;
41693;SDS011;27377;50.666;9.150;2023-12-28T11:30:55;4.60;;;2.35;;
41693;SDS011;27377;50.666;9.150;2023-12-28T11:33:21;5.50;;;2.22;;
41693;SDS011;27377;50.666;9.150;2023-12-28T11:35:47;5.70;;;2.20;;
41693;SDS011;27377;50.666;9.150;2023-12-28T11:38:13;6.05;;;2.40;;
41693;SDS011;27377;50.666;9.150;2023-12-28T11:40:42;4.72;;;2.13;;
41693;SDS011;27377;50.666;9.150;2023-12-28T11:43:20;4.90;;;2.00;;
41693;SDS011;27377;50.666;9.150;2023-12-28T11:45:47;5.50;;;2.13;;
41693;SDS011;27377;50.666;9.150;2023-12-28T11:48:26;6.47;;;2.20;;
41693;SDS011;27377;50.666;9.150;2023-12-28T11:50:57;4.60;;;2.00;;
41693;SDS011;27377;50.666;9.150;2023-12-28T11:53:23;6.55;;;2.20;;
41693;SDS011;27377;50.666;9.150;2023-12-28T11:55:50;5.13;;;2.13;;
41693;SDS011;27377;50.666;9.150;2023-12-28T11:58:19;5.47;;;2.10;;
41693;SDS011;27377;50.666;9.150;2023-12-28T12:00:44;4.65;;;2.30;;
41693;SDS011;27377;50.666;9.150;2023-12-28T12:03:13;7.18;;;2.38;;
41693;SDS011;27377;50.666;9.150;2023-12-28T12:05:39;4.53;;;2.10;;
41693;SDS011;27377;50.666;9.150;2023-12-28T12:08:05;4.47;;;2.03;;
41693;SDS011;27377;50.666;9.150;2023-12-28T12:10:33;6.05;;;2.45;;
41693;SDS011;27377;50.666;9.150;2023-12-28T12:12:59;7.47;;;2.30;;
41693;SDS011;27377;50.666;9.150;2023-12-28T12:15:27;6.03;;;2.30;;
41693;SDS011;27377;50.666;9.150;2023-12-28T12:17:54;5.17;;;2.40;;
41693;SDS011;27377;50.666;9.150;2023-12-28T12:20:19;7.22;;;2.90;;
41693;SDS011;27377;50.666;9.150;2023-12-28T12:22:45;5.68;;;2.60;;
41693;SDS011;27377;50.666;9.150;2023-12-28T12:25:11;6.10;;;2.65;;
41693;SDS011;27377;50.666;9.150;2023-12-28T12:27:37;4.88;;;2.40;;
41693;SDS011;27377;50.666;9.150;2023-12-28T12:30:03;7.10;;;2.50;;
41693;SDS011;27377;50.666;9.150;2023-12-28T12:32:30;6.25;;;2.60;;
41693;SDS011;27377;50.666;9.150;2023-12-28T12:34:56;5.10;;;2.20;;
41693;SDS011;27377;50.666;9.150;2023-12-28T12:37:22;5.20;;;2.10;;
41693;SDS011;27377;50.666;9.150;2023-12-28T12:39:48;5.07;;;2.10;;
41693;SDS011;27377;50.666;9.150;2023-12-28T12:42:14;5.78;;;2.00;;
41693;SDS011;27377;50.666;9.150;2023-12-28T12:44:41;4.28;;;1.83;;
41693;SDS011;27377;50.666;9.150;2023-12-28T12:47:07;5.97;;;2.13;;
41693;SDS011;27377;50.666;9.150;2023-12-28T12:49:32;4.93;;;1.90;;
41693;SDS011;27377;50.666;9.150;2023-12-28T12:51:58;4.50;;;1.80;;
41693;SDS011;27377;50.666;9.150;2023-12-28T12:54:24;5.30;;;1.97;;
41693;SDS011;27377;50.666;9.150;2023-12-28T12:56:51;4.50;;;2.10;;
41693;SDS011;27377;50.666;9.150;2023-12-28T12:59:17;6.07;;;1.75;;
41693;SDS011;27377;50.666;9.150;2023-12-28T13:01:43;5.28;;;2.00;;
41693;SDS011;27377;50.666;9.150;2023-12-28T13:04:17;4.73;;;1.90;;
41693;SDS011;27377;50.666;9.150;2023-12-28T13:06:43;5.05;;;1.60;;
41693;SDS011;27377;50.666;9.150;2023-12-28T13:09:08;6.40;;;1.92;;
41693;SDS011;27377;50.666;9.150;2023-12-28T13:11:36;4.30;;;1.70;;
41693;SDS011;27377;50.666;9.150;2023-12-28T13:14:02;3.97;;;1.73;;
41693;SDS011;27377;50.666;9.150;2023-12-28T13:16:29;5.90;;;1.90;;
41693;SDS011;27377;50.666;9.150;2023-12-28T13:18:55;5.15;;;2.00;;
41693;SDS011;27377;50.666;9.150;2023-12-28T13:21:20;6.87;;;2.50;;
41693;SDS011;27377;50.666;9.150;2023-12-28T13:23:46;5.87;;;2.10;;
41693;SDS011;27377;50.666;9.150;2023-12-28T13:26:12;6.20;;;2.10;;
41693;SDS011;27377;50.666;9.150;2023-12-28T13:28:37;6.32;;;2.25;;
41693;SDS011;27377;50.666;9.150;2023-12-28T13:31:03;4.90;;;2.00;;
41693;SDS011;27377;50.666;9.150;2023-12-28T13:33:29;6.45;;;2.38;;
41693;SDS011;27377;50.666;9.150;2023-12-28T13:35:55;5.80;;;2.20;;
41693;SDS011;27377;50.666;9.150;2023-12-28T13:38:21;5.78;;;2.30;;
41693;SDS011;27377;50.666;9.150;2023-12-28T13:40:47;4.90;;;1.83;;
41693;SDS011;27377;50.666;9.150;2023-12-28T13:43:12;5.80;;;2.10;;
41693;SDS011;27377;50.666;9.150;2023-12-28T13:45:38;6.27;;;2.30;;
41693;SDS011;27377;50.666;9.150;2023-12-28T13:48:04;5.80;;;2.20;;
41693;SDS011;27377;50.666;9.150;2023-12-28T13:50:30;5.57;;;2.20;;
41693;SDS011;27377;50.666;9.150;2023-12-28T13:52:56;5.68;;;1.92;;
41693;SDS011;27377;50.666;9.150;2023-12-28T13:55:22;6.20;;;2.60;;
41693;SDS011;27377;50.666;9.150;2023-12-28T13:57:48;5.43;;;2.22;;
41693;SDS011;27377;50.666;9.150;2023-12-28T14:00:14;6.28;;;2.28;;
41693;SDS011;27377;50.666;9.150;2023-12-28T14:02:40;4.82;;;1.70;;
41693;SDS011;27377;50.666;9.150;2023-12-28T14:05:05;4.63;;;1.67;;
41693;SDS011;27377;50.666;9.150;2023-12-28T14:07:31;6.65;;;1.65;;
41693;SDS011;27377;50.666;9.150;2023-12-28T14:09:58;6.93;;;1.90;;
41693;SDS011;27377;50.666;9.150;2023-12-28T14:12:23;4.50;;;1.70;;
41693;SDS011;27377;50.666;9.150;2023-12-28T14:14:49;4.30;;;1.40;;
41693;SDS011;27377;50.666;9.150;2023-12-28T14:17:15;4.27;;;1.60;;
41693;SDS011;27377;50.666;9.150;2023-12-28T14:19:44;5.70;;;1.80;;
41693;SDS011;27377;50.666;9.150;2023-12-28T14:22:11;6.03;;;1.60;;
41693;SDS011;27377;50.666;9.150;2023-12-28T14:24:37;6.15;;;1.90;;
41693;SDS011;27377;50.666;9.150;2023-12-28T14:27:03;3.88;;;1.55;;
41693;SDS011;27377;50.666;9.150;2023-12-28T14:29:29;4.63;;;1.50;;
41693;SDS011;27377;50.666;9.150;2023-12-28T14:31:55;5.65;;;1.58;;
41693;SDS011;27377;50.666;9.150;2023-12-28T14:34:21;4.47;;;1.63;;
41693;SDS011;27377;50.666;9.150;2023-12-28T14:36:47;4.28;;;1.60;;
41693;SDS011;27377;50.666;9.150;2023-12-28T14:39:15;5.13;;;2.05;;
41693;SDS011;27377;50.666;9.150;2023-12-28T14:41:44;4.90;;;1.77;;
41693;SDS011;27377;50.666;9.150;2023-12-28T14:44:10;5.47;;;1.83;;
41693;SDS011;27377;50.666;9.150;2023-12-28T14:46:36;8.93;;;2.88;;
41693;SDS011;27377;50.666;9.150;2023-12-28T14:49:02;6.82;;;2.00;;
41693;SDS011;27377;50.666;9.150;2023-12-28T14:51:28;4.90;;;1.92;;
41693;SDS011;27377;50.666;9.150;2023-12-28T14:53:54;5.57;;;1.85;;
41693;SDS011;27377;50.666;9.150;2023-12-28T14:56:19;5.53;;;1.80;;
41693;SDS011;27377;50.666;9.150;2023-12-28T14:58:45;5.68;;;1.80;;
41693;SDS011;27377;50.666;9.150;2023-12-28T15:01:16;3.60;;;1.50;;
41693;SDS011;27377;50.666;9.150;2023-12-28T15:03:42;4.53;;;1.60;;
41693;SDS011;27377;50.666;9.150;2023-12-28T15:06:08;6.05;;;1.70;;
41693;SDS011;27377;50.666;9.150;2023-12-28T15:08:35;6.25;;;1.90;;
41693;SDS011;27377;50.666;9.150;2023-12-28T15:11:01;6.57;;;1.95;;
41693;SDS011;27377;50.666;9.150;2023-12-28T15:13:28;6.15;;;1.75;;
41693;SDS011;27377;50.666;9.150;2023-12-28T15:15:54;5.10;;;1.80;;
41693;SDS011;27377;50.666;9.150;2023-12-28T15:18:19;5.13;;;1.95;;
41693;SDS011;27377;50.666;9.150;2023-12-28T15:20:46;8.27;;;2.50;;
41693;SDS011;27377;50.666;9.150;2023-12-28T15:23:14;6.33;;;1.90;;
41693;SDS011;27377;50.666;9.150;2023-12-28T15:25:43;6.65;;;2.08;;